createdAt,value
2019-02-19T00:00:28.922Z,33.60
2019-02-19T00:02:57.508Z,25.43
2019-02-19T00:05:25.920Z,22.80
2019-02-19T00:07:54.209Z,24.83
2019-02-19T00:10:22.444Z,26.90
2019-02-19T00:12:51.017Z,32.10
2019-02-19T00:15:19.269Z,26.27
2019-02-19T00:17:47.538Z,27.53
2019-02-19T00:20:15.783Z,26.97
2019-02-19T00:22:44.057Z,29.30
2019-02-19T00:25:12.603Z,25.10
2019-02-19T00:27:41.022Z,26.70
2019-02-19T00:30:09.271Z,31.43
2019-02-19T00:32:37.541Z,28.87
2019-02-19T00:35:06.632Z,23.97
2019-02-19T00:37:35.213Z,22.80
2019-02-19T00:40:03.444Z,24.30
2019-02-19T00:42:31.749Z,25.07
2019-02-19T00:45:00.372Z,25.87
2019-02-19T00:47:29.038Z,25.23
2019-02-19T00:49:57.277Z,25.60
2019-02-19T00:52:25.888Z,22.60
2019-02-19T00:54:54.140Z,27.50
2019-02-19T00:57:22.417Z,22.07
2019-02-19T00:59:50.689Z,23.27
2019-02-19T01:02:19.310Z,24.60
2019-02-19T01:04:47.876Z,22.97
2019-02-19T01:07:16.144Z,31.37
2019-02-19T01:09:44.405Z,26.63
2019-02-19T01:12:13.025Z,24.90
2019-02-19T01:14:41.532Z,24.47
2019-02-19T01:17:10.096Z,28.93
2019-02-19T01:19:38.669Z,25.27
2019-02-19T01:22:06.958Z,23.70
2019-02-19T01:24:35.533Z,29.77
2019-02-19T01:27:03.770Z,24.53
2019-02-19T01:29:32.051Z,25.33
2019-02-19T01:32:00.306Z,31.13
2019-02-19T01:34:28.578Z,23.63
2019-02-19T01:36:56.899Z,22.53
2019-02-19T01:39:25.495Z,28.17
2019-02-19T01:41:53.750Z,22.07
2019-02-19T01:44:22.032Z,27.60
2019-02-19T01:46:50.624Z,26.07
2019-02-19T01:49:18.889Z,28.20
2019-02-19T01:51:47.128Z,25.80
2019-02-19T01:54:15.426Z,23.20
2019-02-19T01:56:44.055Z,29.73
2019-02-19T01:59:12.325Z,26.43
2019-02-19T02:01:40.901Z,26.67
2019-02-19T02:04:09.177Z,27.67
2019-02-19T02:06:37.434Z,23.93
2019-02-19T02:09:05.773Z,29.17
2019-02-19T02:11:34.097Z,21.20
2019-02-19T02:14:02.385Z,24.17
2019-02-19T02:16:30.635Z,23.93
2019-02-19T02:18:58.988Z,29.80
2019-02-19T02:21:27.301Z,22.60
2019-02-19T02:23:55.578Z,24.10
2019-02-19T02:26:23.871Z,23.70
2019-02-19T02:28:52.132Z,27.57
2019-02-19T02:31:20.390Z,21.43
2019-02-19T02:33:49.000Z,25.00
2019-02-19T02:36:17.244Z,24.97
2019-02-19T02:38:45.606Z,27.97
2019-02-19T02:41:13.857Z,25.03
2019-02-19T02:43:42.145Z,20.50
2019-02-19T02:46:10.391Z,23.63
2019-02-19T02:48:38.960Z,24.87
2019-02-19T02:51:07.209Z,26.00
2019-02-19T02:53:35.478Z,20.37
2019-02-19T02:56:03.737Z,25.47
2019-02-19T02:58:32.030Z,20.63
2019-02-19T03:01:00.281Z,23.73
2019-02-19T03:03:28.603Z,24.10
2019-02-19T03:06:01.192Z,23.80
2019-02-19T03:08:29.438Z,20.03
2019-02-19T03:10:57.733Z,21.47
2019-02-19T03:13:26.056Z,29.50
2019-02-19T03:16:02.100Z,32.10
2019-02-19T03:18:24.610Z,28.80
2019-02-19T03:20:53.206Z,23.97
2019-02-19T03:23:21.457Z,23.90
2019-02-19T03:25:49.712Z,19.40
2019-02-19T03:28:17.990Z,21.17
2019-02-19T03:30:47.666Z,23.10
2019-02-19T03:33:15.946Z,18.97
2019-02-19T03:35:44.505Z,22.30
2019-02-19T03:38:12.786Z,21.10
2019-02-19T03:40:41.042Z,20.23
2019-02-19T03:43:09.327Z,20.83
2019-02-19T03:45:37.652Z,23.77
2019-02-19T03:48:05.923Z,23.87
2019-02-19T03:50:34.166Z,20.60
2019-02-19T03:53:02.780Z,20.20
2019-02-19T03:55:31.336Z,21.70
2019-02-19T03:57:59.593Z,17.73
2019-02-19T04:00:28.189Z,20.40
2019-02-19T04:02:56.789Z,20.97
2019-02-19T04:05:25.064Z,19.70
2019-02-19T04:07:53.314Z,23.13
2019-02-19T04:10:21.591Z,21.30
2019-02-19T04:12:49.866Z,17.07
2019-02-19T04:15:18.135Z,18.23
2019-02-19T04:17:46.745Z,19.87
2019-02-19T04:20:15.004Z,20.27
2019-02-19T04:22:43.245Z,27.97
2019-02-19T04:25:11.783Z,21.97
2019-02-19T04:27:40.051Z,20.17
2019-02-19T04:30:09.248Z,19.50
2019-02-19T04:32:37.507Z,21.70
2019-02-19T04:35:06.057Z,23.73
2019-02-19T04:37:34.599Z,20.20
2019-02-19T04:40:03.161Z,22.97
2019-02-19T04:42:31.419Z,22.23
2019-02-19T04:44:59.742Z,20.63
2019-02-19T04:47:28.005Z,21.23
2019-02-19T04:49:56.288Z,26.57
2019-02-19T04:52:24.876Z,22.30
2019-02-19T04:54:53.224Z,20.43
2019-02-19T04:57:21.471Z,23.67
2019-02-19T04:59:49.779Z,21.57
2019-02-19T05:02:18.037Z,21.93
2019-02-19T05:04:46.307Z,23.17
2019-02-19T05:07:14.544Z,20.90
2019-02-19T05:09:43.096Z,21.87
2019-02-19T05:12:11.354Z,25.27
2019-02-19T05:14:39.957Z,20.63
2019-02-19T05:17:08.222Z,23.93
2019-02-19T05:19:37.255Z,22.37
2019-02-19T05:22:05.831Z,23.97
2019-02-19T05:24:34.404Z,21.00
2019-02-19T05:27:02.977Z,20.20
2019-02-19T05:29:31.504Z,22.57
2019-02-19T05:32:00.100Z,20.70
2019-02-19T05:34:28.464Z,20.90
2019-02-19T05:36:57.102Z,26.50
2019-02-19T05:39:25.383Z,28.67
2019-02-19T05:41:53.631Z,21.17
2019-02-19T05:44:21.880Z,24.97
2019-02-19T05:46:50.522Z,24.23
2019-02-19T05:49:18.852Z,23.50
2019-02-19T05:51:47.131Z,20.43
2019-02-19T05:54:15.360Z,23.10
2019-02-19T05:56:43.660Z,22.10
2019-02-19T05:59:11.916Z,25.43
2019-02-19T06:01:40.472Z,18.10
2019-02-19T06:04:09.054Z,24.07
2019-02-19T06:06:37.586Z,22.70
2019-02-19T06:09:05.839Z,23.43
2019-02-19T06:11:34.100Z,20.47
2019-02-19T06:14:02.363Z,20.97
2019-02-19T06:16:31.081Z,23.50
2019-02-19T06:18:59.566Z,18.67
2019-02-19T06:21:27.854Z,24.27
2019-02-19T06:23:56.093Z,28.63
2019-02-19T06:26:24.646Z,27.57
2019-02-19T06:28:52.889Z,25.83
2019-02-19T06:31:21.159Z,29.90
2019-02-19T06:33:49.955Z,24.23
2019-02-19T06:36:18.371Z,20.77
2019-02-19T06:38:46.819Z,20.30
2019-02-19T06:41:15.476Z,18.87
2019-02-19T06:43:43.802Z,19.63
2019-02-19T06:46:12.419Z,16.23
2019-02-19T06:48:40.669Z,19.20
2019-02-19T06:51:09.282Z,22.37
2019-02-19T06:53:37.546Z,18.00
2019-02-19T06:56:05.818Z,17.77
2019-02-19T06:58:34.416Z,25.33
2019-02-19T07:01:02.994Z,24.87
2019-02-19T07:03:38.676Z,22.63
2019-02-19T07:06:07.218Z,20.10
2019-02-19T07:08:35.733Z,28.07
2019-02-19T07:11:04.023Z,22.53
2019-02-19T07:13:32.609Z,25.40
2019-02-19T07:16:00.952Z,23.03
2019-02-19T07:18:29.330Z,22.87
2019-02-19T07:20:57.594Z,22.73
2019-02-19T07:23:25.867Z,25.20
2019-02-19T07:25:54.134Z,22.27
2019-02-19T07:28:22.383Z,27.87
2019-02-19T07:30:50.694Z,24.50
2019-02-19T07:33:18.962Z,23.83
2019-02-19T07:35:47.284Z,23.23
2019-02-19T07:38:15.584Z,23.20
2019-02-19T07:40:43.833Z,27.90
2019-02-19T07:43:12.101Z,27.87
2019-02-19T07:45:40.342Z,22.10
2019-02-19T07:48:08.634Z,23.10
2019-02-19T07:50:37.221Z,25.17
2019-02-19T07:53:05.841Z,21.93
2019-02-19T07:55:34.237Z,22.13
2019-02-19T07:58:02.800Z,18.83
2019-02-19T08:00:31.202Z,23.00
2019-02-19T08:02:59.746Z,24.77
2019-02-19T08:05:28.265Z,22.93
2019-02-19T08:07:56.536Z,27.23
2019-02-19T08:10:24.921Z,22.33
2019-02-19T08:12:53.186Z,35.20
2019-02-19T08:15:21.683Z,19.80
2019-02-19T08:17:49.957Z,22.23
2019-02-19T08:20:18.283Z,28.73
2019-02-19T08:22:46.601Z,19.00
2019-02-19T08:25:14.894Z,22.83
2019-02-19T08:27:43.422Z,23.03
2019-02-19T08:30:11.978Z,24.17
2019-02-19T08:32:40.294Z,22.70
2019-02-19T08:35:08.785Z,23.13
2019-02-19T08:37:38.717Z,25.13
2019-02-19T08:40:09.016Z,18.67
2019-02-19T08:42:37.309Z,22.50
2019-02-19T08:45:07.502Z,23.47
2019-02-19T08:47:42.326Z,18.67
2019-02-19T08:50:07.621Z,23.30
2019-02-19T08:52:35.956Z,18.60
2019-02-19T08:55:04.668Z,18.77
2019-02-19T08:57:32.935Z,16.53
2019-02-19T09:00:01.182Z,18.30
2019-02-19T09:02:29.571Z,18.30
2019-02-19T09:04:57.850Z,19.33
2019-02-19T09:07:26.191Z,18.60
2019-02-19T09:09:54.729Z,21.73
2019-02-19T09:12:23.000Z,20.63
2019-02-19T09:14:51.257Z,20.47
2019-02-19T09:17:19.539Z,19.27
2019-02-19T09:19:48.166Z,19.70
2019-02-19T09:22:16.755Z,18.37
2019-02-19T09:24:45.006Z,20.00
2019-02-19T09:27:13.271Z,20.00
2019-02-19T09:29:41.893Z,22.53
2019-02-19T09:32:10.154Z,20.80
2019-02-19T09:34:38.435Z,27.13
2019-02-19T09:37:07.021Z,28.90
2019-02-19T09:39:35.296Z,28.07
2019-02-19T09:42:03.529Z,26.47
2019-02-19T09:44:31.807Z,24.30
2019-02-19T09:47:00.074Z,23.83
2019-02-19T09:49:28.356Z,31.37
2019-02-19T09:51:56.609Z,24.67
2019-02-19T09:54:24.951Z,25.03
2019-02-19T09:56:53.196Z,22.70
2019-02-19T09:59:21.462Z,26.03
2019-02-19T10:01:49.978Z,25.37
2019-02-19T10:04:18.269Z,24.10
2019-02-19T10:06:46.522Z,18.90
2019-02-19T10:09:14.804Z,24.70
2019-02-19T10:11:43.398Z,17.97
2019-02-19T10:14:11.944Z,19.97
2019-02-19T10:16:41.891Z,24.70
2019-02-19T10:19:10.809Z,19.63
2019-02-19T10:21:39.058Z,22.00
2019-02-19T10:24:07.651Z,20.53
2019-02-19T10:26:35.894Z,22.13
2019-02-19T10:29:04.163Z,19.50
2019-02-19T10:31:32.404Z,18.13
2019-02-19T10:34:00.682Z,23.93
2019-02-19T10:36:28.944Z,21.00
2019-02-19T10:38:57.462Z,22.53
2019-02-19T10:41:25.818Z,19.73
2019-02-19T10:43:54.093Z,22.83
2019-02-19T10:46:22.354Z,20.80
2019-02-19T10:48:51.963Z,15.87
2019-02-19T10:51:20.466Z,18.33
2019-02-19T10:53:49.134Z,18.70
2019-02-19T10:56:17.810Z,19.10
2019-02-19T10:58:46.587Z,27.97
2019-02-19T11:01:14.837Z,21.27
2019-02-19T11:03:43.100Z,22.07
2019-02-19T11:06:11.374Z,23.03
2019-02-19T11:08:39.727Z,21.80
2019-02-19T11:11:07.973Z,22.53
2019-02-19T11:13:36.258Z,24.87
2019-02-19T11:16:04.850Z,22.67
2019-02-19T11:18:33.280Z,28.00
2019-02-19T11:21:01.525Z,25.03
2019-02-19T11:23:29.809Z,26.73
2019-02-19T11:25:58.058Z,20.60
2019-02-19T11:28:26.310Z,23.93
2019-02-19T11:30:54.886Z,21.53
2019-02-19T11:33:23.135Z,20.93
2019-02-19T11:35:51.685Z,22.53
2019-02-19T11:38:19.941Z,26.17
2019-02-19T11:40:48.497Z,22.70
2019-02-19T11:43:17.080Z,24.47
2019-02-19T11:45:45.345Z,18.83
2019-02-19T11:48:13.588Z,19.70
2019-02-19T11:50:41.861Z,18.30
2019-02-19T11:53:10.406Z,25.40
2019-02-19T11:55:38.680Z,16.07
2019-02-19T11:58:06.931Z,16.77
2019-02-19T12:00:40.033Z,13.83
2019-02-19T12:03:08.284Z,13.10
2019-02-19T12:05:36.895Z,13.40
2019-02-19T12:08:05.145Z,11.57
2019-02-19T12:10:33.983Z,15.60
2019-02-19T12:13:02.240Z,10.00
2019-02-19T12:15:35.202Z,7.20
2019-02-19T12:18:00.471Z,7.10
2019-02-19T12:20:28.734Z,7.73
2019-02-19T12:22:56.981Z,8.50
2019-02-19T12:25:25.245Z,7.40
2019-02-19T12:27:53.508Z,10.73
2019-02-19T12:30:21.791Z,7.90
2019-02-19T12:32:50.120Z,8.77
2019-02-19T12:35:18.769Z,10.83
2019-02-19T12:37:47.353Z,6.93
2019-02-19T12:40:15.945Z,5.77
2019-02-19T12:42:44.523Z,5.77
2019-02-19T12:45:14.377Z,4.50
2019-02-19T12:47:42.696Z,5.03
2019-02-19T12:50:13.670Z,5.30
2019-02-19T12:52:41.938Z,5.90
2019-02-19T12:55:10.761Z,7.43
2019-02-19T12:57:39.009Z,5.50
2019-02-19T13:00:12.556Z,5.27
2019-02-19T13:02:40.809Z,5.03
2019-02-19T13:05:10.626Z,5.57
2019-02-19T13:07:38.877Z,7.97
2019-02-19T13:10:09.928Z,4.50
2019-02-19T13:12:38.252Z,6.20
2019-02-19T13:15:12.564Z,4.27
2019-02-19T13:17:40.807Z,5.20
2019-02-19T13:20:15.185Z,4.57
2019-02-19T13:22:43.432Z,5.30
2019-02-19T13:25:12.157Z,5.80
2019-02-19T13:27:40.732Z,5.53
2019-02-19T13:30:15.094Z,4.23
2019-02-19T13:32:43.623Z,3.17
2019-02-19T13:35:13.045Z,3.87
2019-02-19T13:37:41.620Z,2.67
2019-02-19T13:40:15.024Z,3.67
2019-02-19T13:42:43.685Z,10.60
2019-02-19T13:45:14.319Z,3.23
2019-02-19T13:47:42.907Z,5.97
2019-02-19T13:50:14.437Z,4.43
2019-02-19T13:52:44.579Z,2.53
2019-02-19T13:55:14.806Z,3.20
2019-02-19T13:57:43.055Z,2.80
2019-02-19T14:00:12.973Z,5.10
2019-02-19T14:02:41.227Z,4.27
2019-02-19T14:05:09.460Z,5.53
2019-02-19T14:07:38.029Z,4.03
2019-02-19T14:10:09.783Z,4.27
2019-02-19T14:12:38.155Z,5.33
2019-02-19T14:15:10.686Z,6.97
2019-02-19T14:17:38.978Z,2.53
2019-02-19T14:20:09.849Z,4.00
2019-02-19T14:22:39.795Z,3.27
2019-02-19T14:25:10.313Z,5.47
2019-02-19T14:27:40.550Z,3.10
2019-02-19T14:30:28.848Z,6.33
2019-02-19T14:33:15.183Z,7.37
2019-02-19T14:35:54.139Z,5.10
2019-02-19T14:38:36.235Z,4.77
2019-02-19T14:41:22.417Z,3.93
2019-02-19T14:43:55.057Z,2.67
2019-02-19T14:46:43.839Z,5.07
2019-02-19T14:49:37.105Z,6.13
2019-02-19T14:52:07.813Z,2.47
2019-02-19T14:54:43.735Z,3.67
2019-02-19T14:57:26.281Z,1.97
2019-02-19T14:59:56.182Z,6.53
2019-02-19T15:02:28.828Z,3.90
2019-02-19T15:05:15.281Z,2.47
2019-02-19T15:07:45.397Z,2.77
2019-02-19T15:10:21.163Z,2.60
2019-02-19T15:13:07.755Z,10.77
2019-02-19T15:15:37.645Z,10.97
2019-02-19T15:18:23.943Z,6.70
2019-02-19T15:21:12.578Z,8.03
2019-02-19T15:23:42.555Z,2.73
2019-02-19T15:26:12.482Z,2.57
2019-02-19T15:28:58.897Z,2.83
2019-02-19T15:31:37.709Z,1.50
2019-02-19T15:34:16.603Z,2.63
2019-02-19T15:37:01.484Z,5.73
2019-02-19T15:39:37.242Z,4.03
2019-02-19T15:42:19.742Z,3.43
2019-02-19T15:44:49.612Z,3.33
2019-02-19T15:47:35.728Z,3.70
2019-02-19T15:50:18.987Z,5.23
2019-02-19T15:52:48.915Z,7.03
2019-02-19T15:55:33.891Z,5.47
2019-02-19T15:58:04.865Z,4.30
2019-02-19T16:00:34.990Z,4.43
2019-02-19T16:03:07.879Z,2.00
2019-02-19T16:05:37.830Z,23.20
2019-02-19T16:08:22.561Z,10.53
2019-02-19T16:11:04.655Z,4.00
2019-02-19T16:13:43.470Z,4.03
2019-02-19T16:16:25.433Z,2.67
2019-02-19T16:19:01.247Z,4.60
2019-02-19T16:21:34.013Z,4.53
2019-02-19T16:24:16.260Z,8.37
2019-02-19T16:26:58.223Z,4.13
2019-02-19T16:29:28.442Z,7.07
2019-02-19T16:31:58.685Z,3.83
2019-02-19T16:34:43.593Z,11.27
2019-02-19T16:37:16.622Z,11.93
2019-02-19T16:39:46.549Z,4.43
2019-02-19T16:42:19.133Z,3.77
2019-02-19T16:44:49.021Z,4.93
2019-02-19T16:47:18.934Z,4.43
2019-02-19T16:50:07.875Z,2.43
2019-02-19T16:52:49.395Z,4.87
2019-02-19T16:55:22.669Z,3.00
2019-02-19T16:57:52.899Z,4.80
2019-02-19T17:00:25.699Z,4.13
2019-02-19T17:03:01.873Z,7.07
2019-02-19T17:05:42.419Z,8.17
2019-02-19T17:08:28.829Z,4.03
2019-02-19T17:11:03.025Z,5.43
2019-02-19T17:13:33.015Z,5.83
2019-02-19T17:16:06.532Z,4.07
2019-02-19T17:18:52.940Z,4.50
2019-02-19T17:21:41.151Z,4.23
2019-02-19T17:24:11.106Z,4.73
2019-02-19T17:26:47.042Z,6.93
2019-02-19T17:29:17.274Z,7.67
2019-02-19T17:31:56.394Z,5.57
2019-02-19T17:34:29.105Z,6.10
2019-02-19T17:37:01.814Z,4.53
2019-02-19T17:39:34.717Z,6.37
2019-02-19T17:42:13.842Z,4.27
2019-02-19T17:44:49.814Z,7.30
2019-02-19T17:47:19.777Z,4.63
2019-02-19T17:49:49.772Z,7.23
2019-02-19T17:52:25.839Z,6.83
2019-02-19T17:55:07.664Z,18.97
2019-02-19T17:57:43.951Z,19.63
2019-02-19T18:00:16.851Z,5.40
2019-02-19T18:02:46.803Z,6.60
2019-02-19T18:05:32.257Z,5.57
2019-02-19T18:08:14.247Z,5.07
2019-02-19T18:10:49.936Z,8.73
2019-02-19T18:13:29.354Z,8.90
2019-02-19T18:15:59.580Z,8.30
2019-02-19T18:18:32.686Z,6.73
2019-02-19T18:21:01.018Z,7.33
2019-02-19T18:23:29.390Z,6.67
2019-02-19T18:25:57.696Z,10.50
2019-02-19T18:28:26.052Z,4.40
2019-02-19T18:30:54.686Z,5.13
2019-02-19T18:33:23.021Z,5.67
2019-02-19T18:35:51.283Z,5.93
2019-02-19T18:38:19.880Z,9.80
2019-02-19T18:40:48.120Z,5.70
2019-02-19T18:43:16.375Z,7.97
2019-02-19T18:45:44.665Z,7.17
2019-02-19T18:48:13.218Z,8.87
2019-02-19T18:50:41.519Z,7.57
2019-02-19T18:53:10.099Z,6.63
2019-02-19T18:55:38.744Z,8.30
2019-02-19T18:58:07.318Z,6.40
2019-02-19T19:00:35.918Z,7.00
2019-02-19T19:03:04.481Z,12.33
2019-02-19T19:05:33.069Z,11.63
2019-02-19T19:08:01.763Z,12.20
2019-02-19T19:10:30.339Z,9.60
2019-02-19T19:12:58.599Z,11.13
2019-02-19T19:15:26.946Z,10.17
2019-02-19T19:17:55.325Z,11.17
2019-02-19T19:20:23.648Z,10.70
2019-02-19T19:22:51.873Z,9.37
2019-02-19T19:25:20.180Z,10.60
2019-02-19T19:27:48.492Z,13.30
2019-02-19T19:30:17.039Z,14.90
2019-02-19T19:32:45.276Z,10.50
2019-02-19T19:35:13.566Z,11.87
2019-02-19T19:37:42.094Z,11.63
2019-02-19T19:40:12.433Z,14.17
2019-02-19T19:42:40.743Z,20.20
2019-02-19T19:45:10.791Z,14.93
2019-02-19T19:47:39.045Z,17.67
2019-02-19T19:50:09.931Z,13.57
2019-02-19T19:52:38.198Z,12.27
2019-02-19T19:55:08.744Z,11.97
2019-02-19T19:57:36.986Z,12.10
2019-02-19T20:00:12.815Z,15.17
2019-02-19T20:02:41.075Z,11.60
2019-02-19T20:05:10.378Z,13.90
2019-02-19T20:07:38.643Z,10.23
2019-02-19T20:10:09.649Z,11.07
2019-02-19T20:12:38.041Z,10.40
2019-02-19T20:15:09.537Z,9.50
2019-02-19T20:17:37.778Z,9.27
2019-02-19T20:20:09.346Z,11.83
2019-02-19T20:22:37.660Z,13.47
2019-02-19T20:25:11.934Z,9.20
2019-02-19T20:27:40.186Z,12.60
2019-02-19T20:30:11.731Z,11.17
2019-02-19T20:32:39.966Z,12.03
2019-02-19T20:35:10.123Z,12.93
2019-02-19T20:37:38.724Z,10.40
2019-02-19T20:40:09.869Z,14.47
2019-02-19T20:42:38.128Z,12.13
2019-02-19T20:45:09.263Z,10.40
2019-02-19T20:47:37.575Z,12.60
2019-02-19T20:50:08.753Z,9.93
2019-02-19T20:52:37.064Z,8.47
2019-02-19T20:55:08.023Z,8.83
2019-02-19T20:57:36.619Z,11.13
2019-02-19T21:00:11.618Z,11.57
2019-02-19T21:02:39.921Z,14.00
2019-02-19T21:05:09.819Z,12.63
2019-02-19T21:07:38.399Z,11.73
2019-02-19T21:10:20.477Z,12.47
2019-02-19T21:12:49.067Z,8.83
2019-02-19T21:15:17.388Z,9.77
2019-02-19T21:17:45.695Z,9.93
2019-02-19T21:20:14.189Z,12.93
2019-02-19T21:22:42.803Z,17.57
2019-02-19T21:25:11.475Z,15.30
2019-02-19T21:27:39.964Z,12.43
2019-02-19T21:30:15.749Z,12.87
2019-02-19T21:32:44.414Z,9.43
2019-02-19T21:35:12.720Z,9.87
2019-02-19T21:37:41.090Z,12.47
2019-02-19T21:40:13.714Z,10.67
2019-02-19T21:42:42.101Z,13.57
2019-02-19T21:45:11.943Z,11.53
2019-02-19T21:47:40.631Z,8.87
2019-02-19T21:50:11.383Z,19.00
2019-02-19T21:52:40.817Z,14.63
2019-02-19T21:55:10.681Z,13.70
2019-02-19T21:57:39.022Z,19.00
2019-02-19T22:00:14.082Z,14.10
2019-02-19T22:02:42.598Z,12.83
2019-02-19T22:05:10.837Z,13.27
2019-02-19T22:07:39.423Z,11.77
2019-02-19T22:10:10.671Z,17.83
2019-02-19T22:12:38.944Z,15.80
2019-02-19T22:15:14.549Z,16.47
2019-02-19T22:17:42.821Z,19.37
2019-02-19T22:20:37.493Z,14.87
2019-02-19T22:23:06.120Z,12.83
2019-02-19T22:25:34.650Z,16.97
2019-02-19T22:28:02.914Z,12.77
2019-02-19T22:30:31.210Z,14.87
2019-02-19T22:32:59.481Z,14.57
2019-02-19T22:35:27.724Z,14.07
2019-02-19T22:37:55.990Z,15.00
2019-02-19T22:40:24.229Z,13.57
2019-02-19T22:42:52.501Z,13.30
2019-02-19T22:45:20.746Z,11.97
2019-02-19T22:47:53.510Z,13.30
2019-02-19T22:50:18.981Z,14.17
2019-02-19T22:52:47.255Z,14.20
2019-02-19T22:55:17.140Z,13.37
2019-02-19T22:57:45.405Z,17.87
2019-02-19T23:00:40.742Z,16.93
2019-02-19T23:03:09.010Z,15.57
2019-02-19T23:05:37.251Z,18.00
2019-02-19T23:08:06.042Z,14.50
2019-02-19T23:10:34.286Z,17.53
2019-02-19T23:13:02.607Z,17.87
2019-02-19T23:15:31.170Z,16.80
2019-02-19T23:17:59.473Z,18.20
2019-02-19T23:20:27.715Z,16.27
2019-02-19T23:22:56.313Z,15.33
2019-02-19T23:25:24.561Z,17.13
2019-02-19T23:27:52.830Z,14.60
2019-02-19T23:30:21.182Z,13.30
2019-02-19T23:32:49.436Z,17.03
2019-02-19T23:35:37.613Z,12.23
2019-02-19T23:38:06.012Z,18.90
2019-02-19T23:40:34.523Z,13.57
2019-02-19T23:43:02.800Z,16.07
2019-02-19T23:45:31.385Z,17.80
2019-02-19T23:47:59.956Z,17.90
2019-02-19T23:50:28.203Z,17.20
2019-02-19T23:52:56.473Z,16.73
2019-02-19T23:55:24.739Z,17.17
2019-02-19T23:57:53.007Z,17.07
